createdAt,value
2023-07-10T00:01:01.462Z,19.76
2023-07-10T00:03:29.847Z,19.80
2023-07-10T00:05:57.599Z,19.85
2023-07-10T00:08:24.193Z,19.91
2023-07-10T00:10:51.509Z,19.92
2023-07-10T00:13:25.049Z,19.95
2023-07-10T00:15:53.538Z,20.01
2023-07-10T00:18:25.124Z,19.99
2023-07-10T00:20:51.696Z,19.97
2023-07-10T00:23:19.335Z,19.94
2023-07-10T00:25:46.152Z,19.89
2023-07-10T00:28:15.835Z,19.83
2023-07-10T00:30:42.564Z,19.83
2023-07-10T00:33:11.996Z,19.82
2023-07-10T00:35:39.108Z,19.83
2023-07-10T00:38:32.545Z,19.78
2023-07-10T00:41:01.715Z,19.80
2023-07-10T00:43:42.699Z,19.90
2023-07-10T00:46:30.508Z,19.86
2023-07-10T00:49:10.272Z,19.86
2023-07-10T00:51:45.706Z,19.86
2023-07-10T00:54:34.208Z,19.88
2023-07-10T00:57:06.627Z,19.84
2023-07-10T00:59:39.462Z,19.83
2023-07-10T01:02:09.099Z,19.79
2023-07-10T01:04:41.083Z,19.86
2023-07-10T01:07:16.130Z,19.85
2023-07-10T01:09:45.741Z,19.86
2023-07-10T01:12:12.745Z,19.85
2023-07-10T01:14:39.210Z,19.81
2023-07-10T01:17:08.022Z,19.80
2023-07-10T01:19:36.418Z,19.78
2023-07-10T01:22:04.343Z,19.74
2023-07-10T01:24:31.228Z,19.70
2023-07-10T01:26:58.667Z,19.70
2023-07-10T01:29:36.403Z,19.65
2023-07-10T01:32:04.041Z,19.63
2023-07-10T01:34:50.862Z,19.64
2023-07-10T01:37:18.182Z,19.55
2023-07-10T01:39:51.618Z,19.49
2023-07-10T01:42:18.492Z,19.39
2023-07-10T01:44:47.200Z,19.33
2023-07-10T01:47:15.558Z,19.33
2023-07-10T01:49:50.001Z,19.30
2023-07-10T01:52:19.966Z,19.22
2023-07-10T01:54:49.418Z,19.23
2023-07-10T01:57:18.024Z,19.20
2023-07-10T01:59:44.998Z,19.21
2023-07-10T02:02:13.202Z,19.10
2023-07-10T02:04:39.895Z,19.03
2023-07-10T02:07:06.588Z,19.00
2023-07-10T02:09:33.673Z,18.99
2023-07-10T02:12:01.465Z,18.95
2023-07-10T02:14:29.590Z,18.88
2023-07-10T02:16:56.641Z,18.88
2023-07-10T02:19:23.213Z,18.85
2023-07-10T02:21:49.781Z,18.85
2023-07-10T02:24:17.321Z,18.78
2023-07-10T02:26:43.918Z,18.69
2023-07-10T02:29:10.518Z,18.69
2023-07-10T02:31:37.499Z,18.70
2023-07-10T02:34:04.220Z,18.68
2023-07-10T02:36:30.990Z,18.63
2023-07-10T02:38:57.771Z,18.62
2023-07-10T02:41:24.844Z,18.60
2023-07-10T02:43:51.781Z,18.58
2023-07-10T02:46:18.498Z,18.56
2023-07-10T02:48:45.277Z,18.58
2023-07-10T02:51:11.783Z,18.60
2023-07-10T02:53:38.955Z,18.59
2023-07-10T02:56:05.751Z,18.57
2023-07-10T02:58:32.586Z,18.51
2023-07-10T03:01:01.054Z,18.49
2023-07-10T03:03:28.492Z,18.43
2023-07-10T03:05:57.067Z,18.40
2023-07-10T03:08:24.290Z,18.39
2023-07-10T03:10:59.775Z,18.35
2023-07-10T03:13:26.498Z,18.33
2023-07-10T03:16:05.704Z,18.32
2023-07-10T03:18:36.471Z,18.31
2023-07-10T03:21:03.315Z,18.25
2023-07-10T03:23:30.429Z,18.21
2023-07-10T03:25:57.254Z,18.18
2023-07-10T03:28:23.966Z,18.15
2023-07-10T03:30:50.973Z,18.05
2023-07-10T03:33:18.906Z,18.03
2023-07-10T03:35:49.749Z,18.02
2023-07-10T03:38:17.443Z,17.98
2023-07-10T03:40:51.660Z,17.95
2023-07-10T03:43:18.421Z,17.96
2023-07-10T03:45:44.926Z,17.92
2023-07-10T03:48:11.720Z,17.91
2023-07-10T03:50:38.492Z,17.90
2023-07-10T03:53:05.094Z,17.89
2023-07-10T03:55:31.633Z,17.87
2023-07-10T03:57:58.177Z,17.87
2023-07-10T04:00:24.713Z,17.88
2023-07-10T04:02:51.456Z,17.86
2023-07-10T04:05:18.268Z,17.87
2023-07-10T04:07:44.809Z,17.86
2023-07-10T04:10:12.481Z,17.90
2023-07-10T04:12:41.948Z,17.89
2023-07-10T04:15:08.966Z,17.86
2023-07-10T04:17:36.463Z,17.89
2023-07-10T04:20:04.405Z,17.86
2023-07-10T04:22:30.924Z,17.90
2023-07-10T04:25:05.301Z,17.96
2023-07-10T04:27:32.617Z,17.97
2023-07-10T04:30:00.142Z,18.01
2023-07-10T04:32:26.897Z,18.01
2023-07-10T04:34:53.523Z,17.99
2023-07-10T04:37:20.116Z,17.96
2023-07-10T04:39:46.585Z,17.96
2023-07-10T04:42:13.108Z,17.92
2023-07-10T04:44:39.650Z,17.95
2023-07-10T04:47:07.930Z,17.95
2023-07-10T04:49:34.563Z,17.97
2023-07-10T04:52:01.090Z,17.99
2023-07-10T04:54:27.587Z,18.01
2023-07-10T04:56:54.264Z,18.02
2023-07-10T04:59:20.953Z,18.02
2023-07-10T05:01:47.465Z,18.06
2023-07-10T05:04:14.098Z,18.04
2023-07-10T05:06:40.881Z,18.03
2023-07-10T05:09:07.456Z,18.03
2023-07-10T05:11:34.015Z,18.05
2023-07-10T05:14:00.995Z,18.09
2023-07-10T05:16:27.693Z,18.17
2023-07-10T05:18:56.334Z,18.30
2023-07-10T05:21:22.931Z,18.58
2023-07-10T05:23:50.449Z,18.73
2023-07-10T05:26:18.092Z,18.77
2023-07-10T05:28:45.508Z,18.91
2023-07-10T05:31:13.328Z,19.41
2023-07-10T05:33:41.104Z,19.83
2023-07-10T05:36:12.027Z,20.23
2023-07-10T05:38:39.447Z,20.40
2023-07-10T05:41:06.654Z,20.59
2023-07-10T05:43:34.757Z,20.55
2023-07-10T05:46:02.212Z,20.68
2023-07-10T05:48:29.854Z,20.55
2023-07-10T05:50:57.688Z,20.58
2023-07-10T05:53:24.734Z,21.27
2023-07-10T05:55:53.718Z,21.56
2023-07-10T05:58:24.018Z,21.56
2023-07-10T06:00:53.660Z,21.46
2023-07-10T06:03:20.145Z,21.58
2023-07-10T06:05:56.672Z,21.66
2023-07-10T06:08:24.693Z,22.07
2023-07-10T06:10:51.557Z,22.02
2023-07-10T06:13:18.430Z,21.87
2023-07-10T06:15:47.584Z,22.04
2023-07-10T06:18:16.455Z,22.69
2023-07-10T06:20:44.674Z,23.28
2023-07-10T06:23:11.246Z,24.01
2023-07-10T06:25:42.520Z,24.25
2023-07-10T06:28:09.038Z,24.37
2023-07-10T06:30:40.145Z,24.70
2023-07-10T06:33:06.705Z,24.38
2023-07-10T06:35:33.333Z,24.03
2023-07-10T06:38:01.933Z,23.87
2023-07-10T06:40:28.487Z,23.77
2023-07-10T06:42:55.114Z,24.12
2023-07-10T06:45:22.872Z,24.53
2023-07-10T06:47:49.568Z,25.03
2023-07-10T06:50:16.324Z,25.62
2023-07-10T06:52:44.282Z,25.97
2023-07-10T06:55:18.629Z,26.18
2023-07-10T06:57:45.784Z,26.09
2023-07-10T07:00:18.000Z,25.66
2023-07-10T07:02:44.950Z,25.86
2023-07-10T07:05:13.106Z,26.03
2023-07-10T07:07:42.494Z,26.50
2023-07-10T07:10:16.048Z,26.74
2023-07-10T07:12:44.129Z,26.90
2023-07-10T07:15:12.746Z,26.60
2023-07-10T07:17:39.854Z,26.69
2023-07-10T07:20:08.474Z,26.74
2023-07-10T07:22:35.122Z,26.54
2023-07-10T07:25:02.033Z,26.42
2023-07-10T07:27:32.692Z,26.91
2023-07-10T07:29:59.368Z,27.41
2023-07-10T07:32:25.978Z,27.38
2023-07-10T07:34:52.787Z,27.73
2023-07-10T07:37:19.494Z,27.89
2023-07-10T07:39:46.168Z,28.00
2023-07-10T07:42:12.771Z,28.50
2023-07-10T07:44:39.436Z,28.48
2023-07-10T07:47:06.386Z,28.31
2023-07-10T07:49:32.980Z,27.68
2023-07-10T07:51:59.628Z,27.55
2023-07-10T07:54:26.161Z,27.84
2023-07-10T07:56:52.796Z,27.72
2023-07-10T07:59:20.063Z,27.37
2023-07-10T08:01:49.538Z,27.82
2023-07-10T08:04:17.066Z,28.15
2023-07-10T08:06:44.583Z,28.08
2023-07-10T08:09:12.678Z,28.19
2023-07-10T08:11:39.192Z,28.35
2023-07-10T08:14:05.811Z,28.53
2023-07-10T08:16:32.462Z,28.67
2023-07-10T08:18:59.019Z,28.85
2023-07-10T08:21:25.961Z,28.48
2023-07-10T08:23:52.616Z,28.02
2023-07-10T08:26:19.199Z,27.97
2023-07-10T08:28:45.828Z,28.21
2023-07-10T08:31:12.430Z,27.94
2023-07-10T08:33:40.040Z,28.08
2023-07-10T08:36:07.953Z,28.19
2023-07-10T08:38:37.207Z,28.78
2023-07-10T08:41:13.584Z,29.21
2023-07-10T08:43:42.093Z,29.42
2023-07-10T08:46:16.854Z,29.54
2023-07-10T08:49:25.345Z,29.90
2023-07-10T08:52:04.134Z,29.70
2023-07-10T08:54:30.956Z,29.74
2023-07-10T08:57:23.740Z,29.90
2023-07-10T08:59:57.349Z,29.66
2023-07-10T09:02:37.972Z,29.93
2023-07-10T09:05:12.436Z,29.66
2023-07-10T09:07:43.472Z,29.17
2023-07-10T09:10:19.343Z,29.34
2023-07-10T09:12:58.337Z,29.33
2023-07-10T09:15:30.165Z,29.35
2023-07-10T09:18:05.723Z,29.80
2023-07-10T09:20:32.387Z,30.38
2023-07-10T09:23:02.073Z,30.42
2023-07-10T09:25:29.337Z,30.65
2023-07-10T09:27:57.172Z,31.09
2023-07-10T09:30:27.326Z,31.34
2023-07-10T09:33:01.428Z,31.51
2023-07-10T09:35:28.526Z,31.72
2023-07-10T09:37:55.181Z,31.80
2023-07-10T09:40:45.609Z,31.61
2023-07-10T09:43:21.234Z,31.03
2023-07-10T09:45:50.643Z,30.57
2023-07-10T09:48:24.552Z,30.59
2023-07-10T09:50:55.472Z,30.93
2023-07-10T09:53:33.845Z,31.21
2023-07-10T09:56:01.008Z,30.99
2023-07-10T09:58:27.550Z,31.22
2023-07-10T10:00:57.499Z,30.70
2023-07-10T10:03:33.012Z,30.58
2023-07-10T10:06:02.917Z,30.71
2023-07-10T10:08:33.900Z,30.79
2023-07-10T10:11:09.306Z,31.10
2023-07-10T10:13:42.065Z,31.51
2023-07-10T10:16:37.511Z,31.72
2023-07-10T10:19:23.733Z,32.43
2023-07-10T10:21:50.384Z,32.35
2023-07-10T10:24:17.889Z,32.30
2023-07-10T10:26:56.126Z,31.78
2023-07-10T10:29:41.149Z,31.75
2023-07-10T10:32:32.786Z,31.99
2023-07-10T10:35:32.626Z,31.83
2023-07-10T10:38:36.968Z,31.97
2023-07-10T10:41:19.596Z,31.90
2023-07-10T10:44:01.106Z,31.94
2023-07-10T10:46:33.411Z,31.61
2023-07-10T10:49:25.111Z,31.28
2023-07-10T10:52:23.382Z,31.06
2023-07-10T10:54:49.868Z,30.98
2023-07-10T10:57:16.288Z,31.02
2023-07-10T11:00:02.610Z,31.56
2023-07-10T11:02:50.144Z,31.95
2023-07-10T11:05:26.305Z,32.10
2023-07-10T11:07:58.405Z,31.73
2023-07-10T11:10:41.201Z,32.28
2023-07-10T11:13:24.718Z,32.66
2023-07-10T11:15:52.752Z,32.68
2023-07-10T11:18:20.352Z,32.20
2023-07-10T11:20:47.425Z,32.20
2023-07-10T11:23:42.079Z,31.83
2023-07-10T11:26:14.118Z,31.59
2023-07-10T11:29:08.475Z,31.20
2023-07-10T11:31:38.012Z,30.95
2023-07-10T11:34:07.775Z,31.01
2023-07-10T11:36:34.175Z,30.73
2023-07-10T11:39:15.237Z,30.78
2023-07-10T11:41:44.748Z,30.39
2023-07-10T11:44:32.418Z,30.26
2023-07-10T11:47:01.786Z,30.11
2023-07-10T11:49:43.317Z,29.98
2023-07-10T11:52:15.888Z,29.94
2023-07-10T11:54:42.450Z,30.29
2023-07-10T11:57:09.531Z,30.47
2023-07-10T12:00:00.029Z,30.73
2023-07-10T12:02:38.276Z,30.83
2023-07-10T12:05:20.376Z,30.94
2023-07-10T12:08:12.010Z,30.90
2023-07-10T12:10:51.570Z,31.07
2023-07-10T12:13:25.062Z,31.07
2023-07-10T12:16:01.968Z,31.20
2023-07-10T12:18:34.393Z,31.00
2023-07-10T12:21:04.473Z,30.87
2023-07-10T12:23:31.072Z,30.97
2023-07-10T12:25:59.683Z,30.99
2023-07-10T12:28:29.288Z,30.93
2023-07-10T12:30:59.916Z,30.87
2023-07-10T12:33:41.637Z,30.98
2023-07-10T12:36:30.750Z,30.85
2023-07-10T12:38:59.900Z,30.62
2023-07-10T12:41:27.217Z,30.26
2023-07-10T12:43:58.658Z,30.45
2023-07-10T12:46:29.259Z,30.29
2023-07-10T12:49:14.694Z,30.24
2023-07-10T12:51:45.715Z,30.04
2023-07-10T12:54:23.845Z,29.91
2023-07-10T12:56:53.563Z,29.90
2023-07-10T12:59:28.082Z,29.97
2023-07-10T13:02:05.820Z,30.34
2023-07-10T13:04:38.644Z,30.68
2023-07-10T13:07:30.481Z,30.79
2023-07-10T13:10:25.584Z,30.80
2023-07-10T13:12:57.558Z,30.49
2023-07-10T13:15:34.514Z,30.41
2023-07-10T13:18:01.826Z,30.71
2023-07-10T13:20:30.855Z,30.63
2023-07-10T13:22:59.840Z,30.52
2023-07-10T13:25:33.088Z,30.53
2023-07-10T13:27:59.943Z,30.41
2023-07-10T13:30:29.095Z,30.50
2023-07-10T13:32:55.826Z,30.27
2023-07-10T13:35:22.592Z,30.33
2023-07-10T13:37:49.358Z,30.29
2023-07-10T13:40:22.486Z,30.27
2023-07-10T13:42:50.503Z,30.33
2023-07-10T13:45:17.054Z,30.45
2023-07-10T13:47:43.673Z,30.56
2023-07-10T13:50:16.779Z,30.62
2023-07-10T13:52:43.403Z,30.83
2023-07-10T13:55:15.165Z,30.85
2023-07-10T13:57:42.079Z,30.52
2023-07-10T14:00:14.007Z,30.24
2023-07-10T14:02:41.275Z,30.00
2023-07-10T14:05:17.705Z,30.00
2023-07-10T14:07:44.722Z,29.96
2023-07-10T14:10:18.978Z,29.71
2023-07-10T14:12:46.901Z,29.46
2023-07-10T14:15:17.047Z,29.15
2023-07-10T14:17:44.104Z,29.45
2023-07-10T14:20:23.266Z,29.58
2023-07-10T14:22:49.894Z,29.57
2023-07-10T14:25:19.722Z,29.38
2023-07-10T14:27:46.534Z,29.24
2023-07-10T14:30:21.298Z,29.11
2023-07-10T14:32:48.633Z,28.84
2023-07-10T14:35:18.331Z,28.69
2023-07-10T14:37:46.167Z,28.83
2023-07-10T14:40:16.027Z,29.01
2023-07-10T14:42:42.986Z,29.11
2023-07-10T14:45:17.325Z,29.25
2023-07-10T14:47:45.628Z,28.83
2023-07-10T14:50:13.257Z,28.75
2023-07-10T14:52:42.436Z,29.13
2023-07-10T14:55:17.645Z,29.25
2023-07-10T14:57:44.417Z,28.87
2023-07-10T15:00:17.025Z,28.80
2023-07-10T15:02:43.679Z,29.05
2023-07-10T15:05:10.311Z,29.29
2023-07-10T15:07:39.117Z,29.49
2023-07-10T15:10:25.349Z,29.42
2023-07-10T15:12:53.476Z,29.37
2023-07-10T15:15:20.243Z,29.14
2023-07-10T15:17:47.908Z,28.92
2023-07-10T15:20:19.865Z,28.85
2023-07-10T15:22:47.509Z,28.81
2023-07-10T15:25:22.782Z,28.86
2023-07-10T15:27:51.240Z,28.87
2023-07-10T15:30:21.289Z,28.93
2023-07-10T15:32:50.538Z,29.05
2023-07-10T15:35:19.936Z,29.06
2023-07-10T15:37:49.205Z,28.97
2023-07-10T15:40:21.971Z,29.00
2023-07-10T15:42:50.978Z,29.05
2023-07-10T15:45:19.611Z,28.90
2023-07-10T15:47:48.883Z,28.80
2023-07-10T15:50:17.379Z,28.83
2023-07-10T15:52:47.947Z,28.81
2023-07-10T15:55:19.564Z,28.69
2023-07-10T15:57:50.439Z,28.68
2023-07-10T16:00:25.518Z,28.59
2023-07-10T16:02:55.776Z,28.43
2023-07-10T16:05:28.959Z,28.36
2023-07-10T16:07:56.719Z,28.36
2023-07-10T16:10:24.698Z,28.24
2023-07-10T16:12:53.526Z,28.07
2023-07-10T16:15:22.674Z,27.85
2023-07-10T16:17:51.052Z,27.74
2023-07-10T16:20:26.302Z,27.47
2023-07-10T16:23:03.765Z,27.34
2023-07-10T16:25:30.527Z,27.31
2023-07-10T16:27:57.515Z,27.33
2023-07-10T16:30:26.741Z,27.19
2023-07-10T16:32:56.084Z,27.15
2023-07-10T16:35:24.580Z,27.19
2023-07-10T16:37:55.569Z,27.18
2023-07-10T16:40:24.521Z,27.17
2023-07-10T16:42:54.669Z,27.29
2023-07-10T16:45:31.650Z,27.23
2023-07-10T16:47:58.961Z,27.14
2023-07-10T16:50:25.886Z,27.18
2023-07-10T16:52:52.617Z,27.19
2023-07-10T16:55:24.644Z,27.15
2023-07-10T16:57:53.942Z,27.08
2023-07-10T17:00:29.194Z,27.04
2023-07-10T17:02:58.673Z,27.05
2023-07-10T17:05:25.265Z,27.20
2023-07-10T17:07:51.855Z,27.06
2023-07-10T17:10:19.003Z,27.07
2023-07-10T17:12:49.207Z,26.98
2023-07-10T17:15:18.320Z,26.97
2023-07-10T17:17:45.266Z,26.96
2023-07-10T17:20:16.466Z,26.99
2023-07-10T17:22:43.502Z,26.96
2023-07-10T17:25:16.378Z,26.93
2023-07-10T17:27:44.126Z,26.95
2023-07-10T17:30:15.344Z,26.95
2023-07-10T17:32:42.425Z,26.83
2023-07-10T17:35:20.538Z,26.92
2023-07-10T17:37:51.196Z,26.90
2023-07-10T17:40:18.216Z,26.72
2023-07-10T17:42:45.791Z,26.80
2023-07-10T17:45:20.507Z,26.66
2023-07-10T17:47:48.108Z,26.55
2023-07-10T17:50:16.640Z,26.52
2023-07-10T17:52:46.149Z,26.52
2023-07-10T17:55:21.343Z,26.57
2023-07-10T17:57:49.254Z,26.55
2023-07-10T18:00:17.573Z,26.54
2023-07-10T18:02:46.736Z,26.58
2023-07-10T18:05:19.753Z,26.54
2023-07-10T18:07:46.736Z,26.57
2023-07-10T18:10:13.852Z,26.62
2023-07-10T18:12:41.511Z,26.51
2023-07-10T18:15:16.599Z,26.55
2023-07-10T18:17:44.898Z,26.52
2023-07-10T18:20:13.567Z,26.52
2023-07-10T18:22:42.280Z,26.46
2023-07-10T18:25:17.766Z,26.35
2023-07-10T18:27:46.662Z,26.34
2023-07-10T18:30:17.854Z,26.11
2023-07-10T18:32:45.217Z,26.01
2023-07-10T18:35:17.227Z,25.98
2023-07-10T18:37:44.007Z,25.88
2023-07-10T18:40:11.392Z,25.81
2023-07-10T18:42:38.188Z,25.87
2023-07-10T18:45:18.662Z,25.88
2023-07-10T18:47:45.420Z,25.84
2023-07-10T18:50:16.266Z,25.69
2023-07-10T18:52:43.746Z,25.58
2023-07-10T18:55:20.092Z,25.49
2023-07-10T18:57:48.685Z,25.39
2023-07-10T19:00:23.812Z,25.35
2023-07-10T19:02:54.488Z,25.33
2023-07-10T19:05:21.276Z,25.25
2023-07-10T19:07:48.021Z,25.21
2023-07-10T19:10:17.261Z,25.22
2023-07-10T19:12:43.896Z,25.16
2023-07-10T19:15:10.861Z,25.13
2023-07-10T19:17:38.462Z,25.09
2023-07-10T19:23:33.477Z,24.88
2023-07-10T19:25:59.963Z,24.88
2023-07-10T19:28:31.237Z,24.86
2023-07-10T19:31:00.582Z,24.82
2023-07-10T19:33:33.872Z,24.71
2023-07-10T19:36:01.053Z,24.65
2023-07-10T19:38:31.898Z,24.59
2023-07-10T19:41:01.298Z,24.45
2023-07-10T19:43:27.891Z,24.42
2023-07-10T19:45:57.465Z,24.33
2023-07-10T19:48:29.326Z,24.18
2023-07-10T19:50:55.863Z,24.17
2023-07-10T19:53:31.576Z,24.12
2023-07-10T19:56:01.179Z,24.10
2023-07-10T19:58:33.042Z,23.95
2023-07-10T20:01:00.427Z,23.86
2023-07-10T20:03:35.086Z,23.82
2023-07-10T20:06:04.832Z,23.76
2023-07-10T20:08:35.206Z,23.71
2023-07-10T20:11:07.670Z,23.71
2023-07-10T20:13:35.705Z,23.69
2023-07-10T20:16:06.092Z,23.69
2023-07-10T20:18:36.040Z,23.61
2023-07-10T20:21:03.815Z,23.52
2023-07-10T20:23:31.125Z,23.38
2023-07-10T20:26:01.479Z,23.38
2023-07-10T20:28:34.276Z,23.29
2023-07-10T20:31:00.838Z,23.25
2023-07-10T20:33:31.219Z,23.24
2023-07-10T20:36:01.550Z,23.21
2023-07-10T20:38:40.366Z,23.16
2023-07-10T20:41:12.274Z,23.16
2023-07-10T20:43:41.075Z,23.11
2023-07-10T20:46:23.557Z,23.02
2023-07-10T20:48:51.825Z,22.99
2023-07-10T20:51:24.841Z,22.89
2023-07-10T20:53:52.580Z,22.84
2023-07-10T20:56:27.546Z,22.81
2023-07-10T20:58:55.556Z,22.86
2023-07-10T21:01:32.374Z,22.84
2023-07-10T21:03:59.198Z,22.84
2023-07-10T21:06:34.277Z,22.77
2023-07-10T21:09:11.846Z,22.69
2023-07-10T21:11:38.358Z,22.70
2023-07-10T21:14:10.518Z,22.67
2023-07-10T21:16:37.559Z,22.65
2023-07-10T21:19:20.207Z,22.67
2023-07-10T21:21:47.385Z,22.65
2023-07-10T21:24:20.632Z,22.58
2023-07-10T21:26:51.497Z,22.50
2023-07-10T21:29:18.277Z,22.41
2023-07-10T21:31:44.978Z,22.36
2023-07-10T21:34:14.204Z,22.33
2023-07-10T21:36:41.969Z,22.34
2023-07-10T21:39:09.157Z,22.27
2023-07-10T21:41:42.816Z,22.24
2023-07-10T21:44:23.383Z,22.18
2023-07-10T21:46:51.138Z,22.09
2023-07-10T21:49:17.968Z,22.06
2023-07-10T21:51:45.538Z,22.00
2023-07-10T21:54:12.877Z,21.94
2023-07-10T21:56:42.742Z,21.94
2023-07-10T21:59:18.651Z,21.89
2023-07-10T22:01:45.256Z,21.84
2023-07-10T22:04:12.263Z,21.76
2023-07-10T22:06:44.518Z,21.68
2023-07-10T22:09:12.938Z,21.70
2023-07-10T22:11:42.056Z,21.63
2023-07-10T22:14:17.911Z,21.58
2023-07-10T22:16:45.660Z,21.50
2023-07-10T22:19:13.308Z,21.46
2023-07-10T22:21:41.346Z,21.35
2023-07-10T22:24:16.020Z,21.35
2023-07-10T22:26:42.560Z,21.31
2023-07-10T22:29:09.247Z,21.30
2023-07-10T22:31:35.834Z,21.29
2023-07-10T22:34:02.542Z,21.27
2023-07-10T22:36:29.159Z,21.23
2023-07-10T22:38:55.661Z,21.16
2023-07-10T22:41:26.722Z,21.09
2023-07-10T22:43:59.983Z,21.00
2023-07-10T22:46:33.807Z,20.91
2023-07-10T22:49:02.901Z,20.87
2023-07-10T22:51:31.269Z,20.83
2023-07-10T22:53:58.988Z,20.69
2023-07-10T22:56:28.680Z,20.56
2023-07-10T22:58:55.489Z,20.42
2023-07-10T23:01:23.006Z,20.41
2023-07-10T23:03:52.605Z,20.40
2023-07-10T23:06:24.726Z,20.31
2023-07-10T23:08:52.672Z,20.29
2023-07-10T23:11:19.596Z,20.27
2023-07-10T23:13:46.463Z,20.28
2023-07-10T23:16:15.819Z,20.20
2023-07-10T23:18:52.632Z,20.13
2023-07-10T23:21:20.364Z,20.11
2023-07-10T23:23:47.510Z,20.05
2023-07-10T23:26:15.902Z,20.04
2023-07-10T23:28:42.654Z,20.04
2023-07-10T23:31:19.322Z,20.04
2023-07-10T23:33:45.969Z,20.05
2023-07-10T23:36:12.752Z,20.04
2023-07-10T23:38:39.681Z,20.01
2023-07-10T23:41:06.273Z,19.93
2023-07-10T23:43:33.131Z,19.87
2023-07-10T23:45:59.720Z,19.77
2023-07-10T23:48:26.432Z,19.79
2023-07-10T23:50:55.713Z,19.80
2023-07-10T23:53:25.795Z,19.80
2023-07-10T23:55:53.434Z,19.81
2023-07-10T23:58:19.986Z,19.81
